createdAt,value
2022-08-30T00:01:30.866Z,9.38
2022-08-30T00:03:59.378Z,6.78
2022-08-30T00:06:28.729Z,7.93
2022-08-30T00:08:56.208Z,10.10
2022-08-30T00:11:27.791Z,7.55
2022-08-30T00:13:56.633Z,8.43
2022-08-30T00:16:24.697Z,6.35
2022-08-30T00:18:51.731Z,5.35
2022-08-30T00:21:19.108Z,7.15
2022-08-30T00:23:46.129Z,7.25
2022-08-30T00:26:13.233Z,10.15
2022-08-30T00:28:40.283Z,8.55
2022-08-30T00:31:07.577Z,7.60
2022-08-30T00:33:34.836Z,8.38
2022-08-30T00:36:01.932Z,7.47
2022-08-30T00:38:28.901Z,9.15
2022-08-30T00:40:56.002Z,6.93
2022-08-30T00:43:30.737Z,7.78
2022-08-30T00:45:58.200Z,4.85
2022-08-30T00:48:25.593Z,7.15
2022-08-30T00:50:58.712Z,5.85
2022-08-30T00:53:29.938Z,5.55
2022-08-30T00:55:59.914Z,5.90
2022-08-30T00:58:34.784Z,7.10
2022-08-30T01:01:20.387Z,5.68
2022-08-30T01:03:47.899Z,5.90
2022-08-30T01:06:15.769Z,7.55
2022-08-30T02:09:52.974Z,8.30
2022-08-30T02:12:20.549Z,10.25
2022-08-30T02:14:47.699Z,7.10
2022-08-30T02:17:16.350Z,8.73
2022-08-30T02:19:43.615Z,9.35
2022-08-30T02:22:10.619Z,8.75
2022-08-30T02:24:37.575Z,8.13
2022-08-30T02:27:05.471Z,7.13
2022-08-30T02:29:32.702Z,9.95
2022-08-30T02:31:59.883Z,10.15
2022-08-30T02:34:26.813Z,9.68
2022-08-30T02:36:53.852Z,9.30
2022-08-30T02:39:20.932Z,11.00
2022-08-30T02:41:48.151Z,8.93
2022-08-30T02:44:15.339Z,10.27
2022-08-30T02:46:42.275Z,8.70
2022-08-30T02:49:30.355Z,9.77
2022-08-30T02:51:56.238Z,8.95
2022-08-30T02:54:23.221Z,7.32
2022-08-30T02:56:50.916Z,7.70
2022-08-30T02:59:18.650Z,10.80
2022-08-30T03:01:46.211Z,12.05
2022-08-30T03:04:13.238Z,8.48
2022-08-30T03:06:40.165Z,9.95
2022-08-30T03:09:07.163Z,8.90
2022-08-30T03:11:34.755Z,8.00
2022-08-30T03:14:02.009Z,10.20
2022-08-30T03:16:29.026Z,11.95
2022-08-30T03:18:56.505Z,10.07
2022-08-30T03:21:23.493Z,8.95
2022-08-30T03:23:50.406Z,8.05
2022-08-30T03:26:17.357Z,13.07
2022-08-30T03:28:45.384Z,7.72
2022-08-30T03:31:12.714Z,9.23
2022-08-30T03:33:40.626Z,10.95
2022-08-30T03:36:09.600Z,10.35
2022-08-30T03:38:37.003Z,15.65
2022-08-30T03:41:05.654Z,7.90
2022-08-30T03:43:33.489Z,11.18
2022-08-30T03:46:04.017Z,11.73
2022-08-30T03:48:31.476Z,9.75
2022-08-30T03:50:58.502Z,10.15
2022-08-30T03:53:27.090Z,10.00
2022-08-30T03:55:54.899Z,11.82
2022-08-30T03:58:22.735Z,17.38
2022-08-30T04:00:50.046Z,11.27
2022-08-30T04:03:18.540Z,8.38
2022-08-30T04:05:45.737Z,11.02
2022-08-30T04:08:12.650Z,11.10
2022-08-30T04:10:39.563Z,11.43
2022-08-30T04:13:06.504Z,10.57
2022-08-30T04:15:33.430Z,11.93
2022-08-30T04:18:00.377Z,13.95
2022-08-30T04:20:27.453Z,11.00
2022-08-30T04:22:54.384Z,12.30
2022-08-30T04:25:21.340Z,9.80
2022-08-30T04:27:49.322Z,9.07
2022-08-30T04:30:17.457Z,12.98
2022-08-30T04:32:45.450Z,8.38
2022-08-30T04:35:13.726Z,9.82
2022-08-30T04:37:40.909Z,8.85
2022-08-30T04:40:09.324Z,9.77
2022-08-30T04:42:37.506Z,11.00
2022-08-30T04:45:09.261Z,15.40
2022-08-30T04:47:36.601Z,10.10
2022-08-30T04:50:03.767Z,9.75
2022-08-30T04:52:30.691Z,8.60
2022-08-30T04:54:58.771Z,11.18
2022-08-30T04:57:27.369Z,9.32
2022-08-30T04:59:55.297Z,11.05
2022-08-30T05:02:22.721Z,13.07
2022-08-30T05:05:08.506Z,11.93
2022-08-30T05:07:35.629Z,12.20
2022-08-30T05:10:06.801Z,11.73
2022-08-30T05:12:36.168Z,8.27
2022-08-30T05:15:03.832Z,9.43
2022-08-30T05:17:30.749Z,7.93
2022-08-30T05:19:57.709Z,8.85
2022-08-30T05:22:24.670Z,7.45
2022-08-30T05:24:51.648Z,8.73
2022-08-30T05:27:18.663Z,6.18
2022-08-30T05:29:47.392Z,7.85
2022-08-30T05:32:14.439Z,6.45
2022-08-30T05:34:41.428Z,9.75
2022-08-30T05:37:08.380Z,5.72
2022-08-30T05:39:51.415Z,5.68
2022-08-30T05:42:19.805Z,9.90
2022-08-30T05:44:47.828Z,7.72
2022-08-30T05:47:14.762Z,6.28
2022-08-30T05:49:41.747Z,6.05
2022-08-30T05:52:08.698Z,5.90
2022-08-30T05:54:35.662Z,5.40
2022-08-30T05:57:02.612Z,5.25
2022-08-30T05:59:29.683Z,4.63
2022-08-30T06:01:58.101Z,6.50
2022-08-30T06:04:25.151Z,6.38
2022-08-30T06:06:52.683Z,3.90
2022-08-30T06:09:19.775Z,5.85
2022-08-30T06:11:48.647Z,5.85
2022-08-30T06:14:15.883Z,6.13
2022-08-30T06:16:45.963Z,6.00
2022-08-30T06:19:14.898Z,4.22
2022-08-30T06:21:43.622Z,4.55
2022-08-30T06:24:12.002Z,4.95
2022-08-30T06:26:43.880Z,3.78
2022-08-30T06:29:13.447Z,8.55
2022-08-30T06:31:40.896Z,6.18
2022-08-30T06:34:08.471Z,4.72
2022-08-30T06:36:36.424Z,3.45
2022-08-30T06:39:04.013Z,3.88
2022-08-30T06:41:34.061Z,4.93
2022-08-30T06:44:05.105Z,4.93
2022-08-30T06:46:37.837Z,3.80
2022-08-30T06:49:06.686Z,5.07
2022-08-30T06:51:38.517Z,4.53
2022-08-30T06:54:09.177Z,3.70
2022-08-30T06:56:40.285Z,3.05
2022-08-30T06:59:10.039Z,2.78
2022-08-30T07:01:37.226Z,7.15
2022-08-30T07:04:04.749Z,3.97
2022-08-30T07:06:33.100Z,3.08
2022-08-30T07:09:00.076Z,3.72
2022-08-30T07:11:35.803Z,3.33
2022-08-30T07:14:03.920Z,5.85
2022-08-30T07:16:31.689Z,2.58
2022-08-30T07:18:59.683Z,4.03
2022-08-30T07:21:32.913Z,2.88
2022-08-30T07:24:00.500Z,2.90
2022-08-30T07:26:33.025Z,1.98
2022-08-30T07:29:00.844Z,2.05
2022-08-30T07:31:28.867Z,3.78
2022-08-30T07:33:56.309Z,3.95
2022-08-30T07:36:24.444Z,3.72
2022-08-30T07:38:52.157Z,4.10
2022-08-30T07:41:27.657Z,3.10
2022-08-30T07:43:55.473Z,2.08
2022-08-30T07:46:24.138Z,2.92
2022-08-30T07:48:52.132Z,2.15
2022-08-30T07:51:23.196Z,1.65
2022-08-30T07:53:50.908Z,1.92
2022-08-30T07:56:18.229Z,1.88
2022-08-30T07:58:45.315Z,3.20
2022-08-30T08:01:13.831Z,1.88
2022-08-30T08:03:43.065Z,3.25
2022-08-30T08:06:13.163Z,2.92
2022-08-30T08:08:41.693Z,2.25
2022-08-30T08:11:16.729Z,1.77
2022-08-30T08:13:54.196Z,1.52
2022-08-30T08:16:29.089Z,2.42
2022-08-30T08:18:56.383Z,2.20
2022-08-30T08:21:25.288Z,2.08
2022-08-30T08:23:52.285Z,2.70
2022-08-30T08:26:19.861Z,1.42
2022-08-30T08:28:47.291Z,1.67
2022-08-30T08:31:33.188Z,2.35
2022-08-30T08:34:03.142Z,1.95
2022-08-30T08:36:31.389Z,4.28
2022-08-30T08:38:59.737Z,3.67
2022-08-30T08:41:37.178Z,2.47
2022-08-30T08:45:11.406Z,2.70
2022-08-30T08:47:58.644Z,2.25
2022-08-30T08:50:30.883Z,2.20
2022-08-30T08:53:46.512Z,3.28
2022-08-30T08:56:17.327Z,2.20
2022-08-30T08:58:54.054Z,1.65
2022-08-30T09:01:25.490Z,3.08
2022-08-30T09:03:52.575Z,3.45
2022-08-30T09:06:45.745Z,1.38
2022-08-30T09:09:13.666Z,1.55
2022-08-30T09:11:44.353Z,1.83
2022-08-30T09:14:20.517Z,1.92
2022-08-30T09:16:52.162Z,3.92
2022-08-30T09:19:45.346Z,2.53
2022-08-30T09:22:21.878Z,2.33
2022-08-30T09:25:06.556Z,1.92
2022-08-30T09:27:40.699Z,3.35
2022-08-30T09:30:27.733Z,1.20
2022-08-30T09:32:58.061Z,7.72
2022-08-30T09:35:49.261Z,2.47
2022-08-30T09:38:29.451Z,1.80
2022-08-30T09:40:59.981Z,1.98
2022-08-30T09:43:31.223Z,3.47
2022-08-30T09:46:01.447Z,1.83
2022-08-30T09:48:45.293Z,2.17
2022-08-30T09:51:41.121Z,1.95
2022-08-30T09:54:19.809Z,1.58
2022-08-30T09:57:16.873Z,1.40
2022-08-30T10:00:19.697Z,5.47
2022-08-30T10:03:35.260Z,1.15
2022-08-30T10:06:18.226Z,1.05
2022-08-30T10:09:28.684Z,1.30
2022-08-30T10:12:18.333Z,2.30
2022-08-30T10:15:12.281Z,1.52
2022-08-30T10:17:56.538Z,1.52
2022-08-30T10:20:26.121Z,1.55
2022-08-30T10:23:06.362Z,1.25
2022-08-30T10:25:42.065Z,1.70
2022-08-30T10:28:21.567Z,1.73
2022-08-30T10:30:59.753Z,1.75
2022-08-30T10:33:35.940Z,2.67
2022-08-30T10:36:10.313Z,1.02
2022-08-30T10:38:41.934Z,1.25
2022-08-30T10:41:44.603Z,2.75
2022-08-30T10:44:30.387Z,2.63
2022-08-30T10:47:32.076Z,4.47
2022-08-30T10:50:16.958Z,1.50
2022-08-30T10:52:54.824Z,2.42
2022-08-30T10:55:29.089Z,7.38
2022-08-30T10:58:02.098Z,1.92
2022-08-30T11:00:54.254Z,2.30
2022-08-30T11:03:39.749Z,2.55
2022-08-30T11:06:20.143Z,1.50
2022-08-30T11:09:26.639Z,1.83
2022-08-30T11:12:33.006Z,1.08
2022-08-30T11:15:13.868Z,1.60
2022-08-30T11:17:47.453Z,3.05
2022-08-30T11:20:39.907Z,1.33
2022-08-30T11:23:34.608Z,0.73
2022-08-30T11:26:06.573Z,3.95
2022-08-30T11:28:37.483Z,0.77
2022-08-30T11:31:23.646Z,0.73
2022-08-30T11:33:52.316Z,1.73
2022-08-30T11:39:53.247Z,0.73
2022-08-30T11:42:35.521Z,4.07
2022-08-30T11:45:24.808Z,0.68
2022-08-30T11:48:05.739Z,0.90
2022-08-30T11:50:53.157Z,0.70
2022-08-30T11:53:45.214Z,1.02
2022-08-30T11:56:36.422Z,1.50
2022-08-30T11:59:42.107Z,2.03
2022-08-30T12:02:09.487Z,2.28
2022-08-30T12:04:47.645Z,1.50
2022-08-30T12:08:00.327Z,3.42
2022-08-30T12:11:12.923Z,0.60
2022-08-30T12:13:42.829Z,0.88
2022-08-30T12:16:16.396Z,0.70
2022-08-30T12:19:01.420Z,0.98
2022-08-30T12:21:44.020Z,3.05
2022-08-30T12:24:32.608Z,0.70
2022-08-30T12:27:05.527Z,0.82
2022-08-30T12:29:33.534Z,3.47
2022-08-30T12:32:08.227Z,1.40
2022-08-30T12:34:41.207Z,1.08
2022-08-30T12:37:25.455Z,1.58
2022-08-30T12:40:19.059Z,2.08
2022-08-30T12:42:56.717Z,0.50
2022-08-30T12:45:31.311Z,1.17
2022-08-30T12:48:08.165Z,3.22
2022-08-30T12:50:48.866Z,0.90
2022-08-30T12:53:37.316Z,1.25
2022-08-30T12:56:15.517Z,0.82
2022-08-30T12:58:49.883Z,1.95
2022-08-30T13:01:31.567Z,1.00
2022-08-30T13:04:20.247Z,2.40
2022-08-30T13:06:58.453Z,2.42
2022-08-30T13:10:02.075Z,1.98
2022-08-30T13:12:30.296Z,1.13
2022-08-30T13:15:19.916Z,1.27
2022-08-30T13:17:47.451Z,1.75
2022-08-30T13:20:17.016Z,3.88
2022-08-30T13:23:09.712Z,2.15
2022-08-30T13:25:39.302Z,1.73
2022-08-30T13:28:07.759Z,1.42
2022-08-30T13:30:35.493Z,1.58
2022-08-30T13:33:03.230Z,1.45
2022-08-30T13:35:31.487Z,2.08
2022-08-30T13:38:01.839Z,1.02
2022-08-30T13:40:29.012Z,1.00
2022-08-30T13:42:56.919Z,2.10
2022-08-30T13:45:41.601Z,1.42
2022-08-30T13:48:10.916Z,2.38
2022-08-30T13:50:37.964Z,2.13
2022-08-30T13:53:05.016Z,1.65
2022-08-30T13:55:32.024Z,1.58
2022-08-30T13:57:58.983Z,2.25
2022-08-30T14:00:28.139Z,1.85
2022-08-30T14:02:57.461Z,2.25
2022-08-30T14:05:49.408Z,0.77
2022-08-30T14:11:19.412Z,1.80
2022-08-30T14:16:40.375Z,1.65
2022-08-30T14:19:08.793Z,1.77
2022-08-30T14:21:36.345Z,3.38
2022-08-30T14:24:06.446Z,1.05
2022-08-30T14:26:39.785Z,1.35
2022-08-30T14:29:12.009Z,1.77
2022-08-30T14:31:40.456Z,1.42
2022-08-30T14:34:10.910Z,4.25
2022-08-30T14:36:42.114Z,1.40
2022-08-30T14:39:14.617Z,2.25
2022-08-30T14:41:50.413Z,1.23
2022-08-30T14:44:19.877Z,1.33
2022-08-30T14:46:47.704Z,3.00
2022-08-30T14:49:15.994Z,3.80
2022-08-30T14:51:46.327Z,3.13
2022-08-30T14:54:13.943Z,0.98
2022-08-30T14:59:50.946Z,1.48
2022-08-30T15:02:19.380Z,1.23
2022-08-30T15:04:46.324Z,1.27
2022-08-30T15:07:16.694Z,0.70
2022-08-30T15:09:45.463Z,1.67
2022-08-30T15:12:12.451Z,2.75
2022-08-30T15:14:40.539Z,1.80
2022-08-30T15:17:07.472Z,1.65
2022-08-30T15:19:34.484Z,1.77
2022-08-30T15:22:04.744Z,1.90
2022-08-30T15:24:32.061Z,2.10
2022-08-30T15:27:00.505Z,2.25
2022-08-30T15:29:29.918Z,1.80
2022-08-30T15:31:59.704Z,5.55
2022-08-30T15:34:28.161Z,1.75
2022-08-30T15:36:55.886Z,8.43
2022-08-30T15:39:23.477Z,5.47
2022-08-30T15:41:55.977Z,3.42
2022-08-30T15:44:26.098Z,1.95
2022-08-30T15:46:53.115Z,1.77
2022-08-30T15:49:23.072Z,4.38
2022-08-30T15:51:54.172Z,1.30
2022-08-30T15:54:23.649Z,2.78
2022-08-30T15:56:52.258Z,3.00
2022-08-30T15:59:19.675Z,2.17
2022-08-30T16:01:47.515Z,0.88
2022-08-30T16:04:18.366Z,2.33
2022-08-30T16:06:46.514Z,1.88
2022-08-30T16:09:14.027Z,1.80
2022-08-30T16:11:41.796Z,6.50
2022-08-30T16:14:09.506Z,5.60
2022-08-30T16:16:39.913Z,2.92
2022-08-30T16:19:09.170Z,3.45
2022-08-30T16:21:37.125Z,1.10
2022-08-30T16:24:06.845Z,1.70
2022-08-30T16:26:35.890Z,3.50
2022-08-30T16:29:04.843Z,4.80
2022-08-30T16:31:35.544Z,1.58
2022-08-30T16:34:04.284Z,1.70
2022-08-30T16:36:33.258Z,2.13
2022-08-30T16:39:01.054Z,3.00
2022-08-30T16:41:28.192Z,3.20
2022-08-30T16:43:56.272Z,4.15
2022-08-30T16:46:26.999Z,5.55
2022-08-30T16:48:57.993Z,3.15
2022-08-30T16:51:28.770Z,1.92
2022-08-30T16:53:58.997Z,1.42
2022-08-30T16:56:29.522Z,3.70
2022-08-30T16:59:02.102Z,6.95
2022-08-30T17:01:32.456Z,2.63
2022-08-30T17:04:03.286Z,5.63
2022-08-30T17:06:30.514Z,1.95
2022-08-30T17:08:59.117Z,1.17
2022-08-30T17:11:26.475Z,3.00
2022-08-30T17:13:53.887Z,1.65
2022-08-30T17:16:27.651Z,2.05
2022-08-30T17:19:00.373Z,5.78
2022-08-30T17:21:29.876Z,3.28
2022-08-30T17:24:01.793Z,2.90
2022-08-30T17:26:33.053Z,2.65
2022-08-30T17:29:00.266Z,1.75
2022-08-30T17:34:17.448Z,3.22
2022-08-30T17:36:44.392Z,3.20
2022-08-30T17:39:11.825Z,2.35
2022-08-30T17:41:45.391Z,4.68
2022-08-30T17:44:25.706Z,8.65
2022-08-30T17:46:53.888Z,9.13
2022-08-30T17:49:21.503Z,11.38
2022-08-30T17:51:56.323Z,10.80
2022-08-30T17:54:25.874Z,10.82
2022-08-30T17:56:54.135Z,4.68
2022-08-30T17:59:25.109Z,1.48
2022-08-30T18:01:54.910Z,2.10
2022-08-30T18:04:22.030Z,1.23
2022-08-30T18:06:52.337Z,1.35
2022-08-30T18:09:19.398Z,0.82
2022-08-30T18:11:48.288Z,1.83
2022-08-30T18:14:16.509Z,1.83
2022-08-30T18:16:49.832Z,2.67
2022-08-30T18:19:23.719Z,2.88
2022-08-30T18:21:51.606Z,1.85
2022-08-30T18:24:18.814Z,1.02
2022-08-30T18:26:46.590Z,1.58
2022-08-30T18:29:13.894Z,2.67
2022-08-30T18:31:41.267Z,5.38
2022-08-30T18:34:12.476Z,2.65
2022-08-30T18:36:40.622Z,2.65
2022-08-30T18:39:08.560Z,4.00
2022-08-30T18:41:42.198Z,5.20
2022-08-30T18:44:26.878Z,3.47
2022-08-30T18:46:56.272Z,1.52
2022-08-30T18:49:25.662Z,2.15
2022-08-30T18:51:53.247Z,0.82
2022-08-30T18:54:20.304Z,2.75
2022-08-30T18:56:47.321Z,2.65
2022-08-30T18:59:14.287Z,2.55
2022-08-30T19:01:42.534Z,2.25
2022-08-30T19:04:22.563Z,1.00
2022-08-30T19:06:57.366Z,0.90
2022-08-30T19:09:24.418Z,1.10
2022-08-30T19:11:54.202Z,0.60
2022-08-30T19:14:21.532Z,1.63
2022-08-30T19:16:48.477Z,1.88
2022-08-30T19:19:15.600Z,3.42
2022-08-30T19:21:42.562Z,2.45
2022-08-30T19:24:09.787Z,3.13
2022-08-30T19:26:38.453Z,2.45
2022-08-30T19:29:08.713Z,5.20
2022-08-30T19:31:37.974Z,2.95
2022-08-30T19:34:06.212Z,3.55
2022-08-30T19:36:33.504Z,1.50
2022-08-30T19:39:00.578Z,2.00
2022-08-30T19:41:28.472Z,2.28
2022-08-30T19:43:56.128Z,1.40
2022-08-30T19:46:23.214Z,2.55
2022-08-30T19:48:51.686Z,3.15
2022-08-30T19:51:18.641Z,2.03
2022-08-30T19:53:45.803Z,3.03
2022-08-30T19:56:13.305Z,5.18
2022-08-30T19:58:41.548Z,2.20
2022-08-30T20:01:13.302Z,1.58
2022-08-30T20:03:57.242Z,4.72
2022-08-30T20:06:24.207Z,2.38
2022-08-30T20:08:51.183Z,5.38
2022-08-30T20:11:23.559Z,1.00
2022-08-30T20:13:50.555Z,3.15
2022-08-30T20:16:18.359Z,2.75
2022-08-30T20:18:45.862Z,1.30
2022-08-30T20:21:14.482Z,1.88
2022-08-30T20:23:43.101Z,1.88
2022-08-30T20:24:23.739Z,2.20
2022-08-30T20:26:11.966Z,2.70
2022-08-30T20:28:39.347Z,5.35
2022-08-30T20:31:07.507Z,2.65
2022-08-30T20:33:37.719Z,3.03
2022-08-30T20:36:11.288Z,2.90
2022-08-30T20:38:39.323Z,3.17
2022-08-30T20:41:12.939Z,4.35
2022-08-30T20:43:40.226Z,4.15
2022-08-30T20:46:16.232Z,5.43
2022-08-30T20:48:44.030Z,1.98
2022-08-30T20:51:15.598Z,2.50
2022-08-30T20:53:43.512Z,3.20
2022-08-30T20:56:18.249Z,2.13
2022-08-30T20:58:45.576Z,3.03
2022-08-30T21:01:14.121Z,3.92
2022-08-30T21:03:42.911Z,5.88
2022-08-30T21:06:11.729Z,3.38
2022-08-30T21:08:39.872Z,2.30
2022-08-30T21:11:10.128Z,1.40
2022-08-30T21:13:38.337Z,2.92
2022-08-30T21:16:06.859Z,4.38
2022-08-30T21:18:35.592Z,5.97
2022-08-30T21:21:22.150Z,2.47
2022-08-30T21:23:50.022Z,3.42
2022-08-30T21:26:18.740Z,2.55
2022-08-30T21:28:51.663Z,3.00
2022-08-30T21:31:25.244Z,4.75
2022-08-30T21:33:54.579Z,4.57
2022-08-30T21:36:42.357Z,2.75
2022-08-30T21:39:10.466Z,4.63
2022-08-30T21:41:38.918Z,4.72
2022-08-30T21:44:11.120Z,4.53
2022-08-30T21:46:38.154Z,3.78
2022-08-30T21:49:08.743Z,3.03
2022-08-30T21:51:41.741Z,2.78
2022-08-30T21:54:11.676Z,3.97
2022-08-30T21:56:41.526Z,2.92
2022-08-30T21:59:09.793Z,2.53
2022-08-30T22:01:37.766Z,3.45
2022-08-30T22:04:07.694Z,3.78
2022-08-30T22:06:36.874Z,4.75
2022-08-30T22:09:08.428Z,3.08
2022-08-30T22:11:36.895Z,3.63
2022-08-30T22:14:05.989Z,2.83
2022-08-30T22:16:33.987Z,2.15
2022-08-30T22:19:02.047Z,2.35
2022-08-30T22:21:33.024Z,3.38
2022-08-30T22:24:00.333Z,3.70
2022-08-30T22:26:27.765Z,2.78
2022-08-30T22:28:55.412Z,3.08
2022-08-30T22:31:23.482Z,3.80
2022-08-30T22:33:52.864Z,4.95
2022-08-30T22:36:33.013Z,2.88
2022-08-30T22:39:03.066Z,2.25
2022-08-30T22:41:34.141Z,2.50
2022-08-30T22:44:02.652Z,3.38
2022-08-30T22:46:34.442Z,2.75
2022-08-30T22:49:07.340Z,4.50
2022-08-30T22:51:35.831Z,3.55
2022-08-30T22:54:05.341Z,4.05
2022-08-30T22:56:35.119Z,3.60
2022-08-30T22:59:02.895Z,3.58
2022-08-30T23:01:39.367Z,4.18
2022-08-30T23:04:09.029Z,2.33
2022-08-30T23:06:36.558Z,2.83
2022-08-30T23:09:05.449Z,2.45
2022-08-30T23:11:33.354Z,3.92
2022-08-30T23:14:02.198Z,2.42
2022-08-30T23:16:29.566Z,3.88
2022-08-30T23:18:56.572Z,3.42
2022-08-30T23:21:28.236Z,4.18
2022-08-30T23:24:15.458Z,2.15
2022-08-30T23:27:03.975Z,2.67
2022-08-30T23:29:50.356Z,2.20
2022-08-30T23:32:36.297Z,5.78
2022-08-30T23:35:29.426Z,4.22
2022-08-30T23:38:17.054Z,2.67
2022-08-30T23:41:03.126Z,2.15
2022-08-30T23:43:48.507Z,4.82
2022-08-30T23:46:33.955Z,5.10
2022-08-30T23:49:20.896Z,4.30
2022-08-30T23:52:06.183Z,5.95
2022-08-30T23:54:51.967Z,2.30
2022-08-30T23:57:44.783Z,7.10
